createdAt,value
2023-10-09T00:02:11.471Z,5.60
2023-10-09T00:04:43.201Z,6.20
2023-10-09T00:07:11.612Z,3.55
2023-10-09T00:09:49.058Z,4.32
2023-10-09T00:12:24.353Z,3.33
2023-10-09T00:14:57.500Z,4.88
2023-10-09T00:17:25.589Z,5.45
2023-10-09T00:19:53.692Z,5.35
2023-10-09T00:22:27.827Z,5.43
2023-10-09T00:25:16.715Z,5.40
2023-10-09T00:27:47.864Z,3.53
2023-10-09T00:30:22.948Z,3.35
2023-10-09T00:33:08.667Z,3.70
2023-10-09T00:35:45.479Z,5.80
2023-10-09T00:38:24.295Z,5.63
2023-10-09T00:41:11.713Z,5.22
2023-10-09T00:43:40.115Z,3.97
2023-10-09T00:46:20.850Z,3.28
2023-10-09T00:48:51.027Z,5.07
2023-10-09T00:51:23.359Z,6.32
2023-10-09T00:53:59.453Z,5.00
2023-10-09T00:56:27.248Z,4.13
2023-10-09T00:59:08.526Z,5.28
2023-10-09T01:01:38.274Z,4.18
2023-10-09T01:04:31.771Z,2.83
2023-10-09T01:07:14.330Z,3.90
2023-10-09T01:09:44.954Z,5.85
2023-10-09T01:12:18.659Z,5.30
2023-10-09T01:14:46.258Z,3.72
2023-10-09T01:17:19.887Z,3.38
2023-10-09T01:19:48.566Z,7.07
2023-10-09T01:22:17.150Z,9.13
2023-10-09T01:24:45.094Z,4.65
2023-10-09T01:27:18.545Z,3.72
2023-10-09T01:29:47.881Z,3.65
2023-10-09T01:32:18.390Z,3.42
2023-10-09T01:34:49.527Z,5.47
2023-10-09T01:37:27.346Z,5.18
2023-10-09T01:39:59.336Z,3.60
2023-10-09T01:42:36.152Z,5.63
2023-10-09T01:45:23.985Z,4.50
2023-10-09T01:47:55.122Z,4.78
2023-10-09T01:50:26.013Z,3.63
2023-10-09T01:52:53.353Z,5.35
2023-10-09T01:55:34.333Z,4.78
2023-10-09T01:58:22.374Z,4.38
2023-10-09T02:00:51.915Z,2.65
2023-10-09T02:03:19.731Z,4.60
2023-10-09T02:05:46.887Z,3.03
2023-10-09T02:08:14.436Z,4.40
2023-10-09T02:10:41.628Z,3.60
2023-10-09T02:13:10.405Z,5.30
2023-10-09T02:15:45.316Z,2.92
2023-10-09T02:18:33.314Z,3.72
2023-10-09T02:21:06.254Z,4.63
2023-10-09T02:23:45.894Z,2.83
2023-10-09T02:26:26.621Z,4.95
2023-10-09T02:29:15.533Z,3.28
2023-10-09T02:31:45.605Z,3.85
2023-10-09T02:34:13.233Z,2.95
2023-10-09T02:36:44.478Z,3.60
2023-10-09T02:39:30.629Z,3.08
2023-10-09T02:42:02.988Z,4.30
2023-10-09T02:44:40.501Z,4.32
2023-10-09T02:47:19.441Z,3.20
2023-10-09T02:49:49.471Z,3.15
2023-10-09T02:52:35.914Z,4.50
2023-10-09T02:55:09.380Z,4.85
2023-10-09T02:57:39.185Z,3.50
2023-10-09T03:00:10.765Z,6.82
2023-10-09T03:02:41.469Z,4.57
2023-10-09T03:05:13.592Z,3.10
2023-10-09T03:07:43.514Z,4.30
2023-10-09T03:10:11.110Z,4.75
2023-10-09T03:12:40.617Z,2.83
2023-10-09T03:15:10.050Z,4.07
2023-10-09T03:17:37.465Z,4.07
2023-10-09T03:20:13.589Z,2.85
2023-10-09T03:22:41.759Z,4.03
2023-10-09T03:25:12.787Z,3.58
2023-10-09T03:27:48.909Z,2.90
2023-10-09T03:30:18.690Z,3.03
2023-10-09T03:32:52.057Z,4.28
2023-10-09T03:35:27.292Z,3.25
2023-10-09T03:38:02.130Z,5.68
2023-10-09T03:40:29.415Z,4.90
2023-10-09T03:42:56.519Z,4.35
2023-10-09T03:45:26.727Z,2.78
2023-10-09T03:48:18.026Z,5.25
2023-10-09T03:50:47.140Z,5.85
2023-10-09T03:53:14.942Z,5.82
2023-10-09T03:55:43.124Z,3.22
2023-10-09T03:58:13.525Z,3.17
2023-10-09T04:00:47.271Z,5.90
2023-10-09T04:03:15.871Z,3.08
2023-10-09T04:05:44.285Z,3.38
2023-10-09T04:08:30.111Z,4.95
2023-10-09T04:11:04.154Z,3.20
2023-10-09T04:13:36.147Z,2.70
2023-10-09T04:16:11.049Z,4.43
2023-10-09T04:18:40.068Z,4.68
2023-10-09T04:21:19.772Z,4.25
2023-10-09T04:24:06.138Z,4.18
2023-10-09T04:26:36.270Z,3.70
2023-10-09T04:29:03.699Z,4.43
2023-10-09T04:31:35.829Z,5.43
2023-10-09T04:34:23.095Z,5.32
2023-10-09T04:36:52.567Z,6.35
2023-10-09T04:39:31.577Z,6.28
2023-10-09T04:42:28.531Z,5.15
2023-10-09T04:45:04.760Z,3.80
2023-10-09T04:47:39.050Z,4.85
2023-10-09T04:50:15.721Z,3.60
2023-10-09T04:52:42.689Z,3.85
2023-10-09T04:55:12.898Z,3.60
2023-10-09T04:57:45.370Z,2.75
2023-10-09T05:00:26.763Z,3.85
2023-10-09T05:03:14.729Z,5.03
2023-10-09T05:05:42.466Z,4.57
2023-10-09T05:08:23.117Z,3.53
2023-10-09T05:11:01.196Z,3.00
2023-10-09T05:13:43.406Z,4.47
2023-10-09T05:16:28.285Z,2.95
2023-10-09T05:19:09.274Z,3.05
2023-10-09T05:21:45.696Z,4.43
2023-10-09T05:24:14.020Z,3.83
2023-10-09T05:26:48.516Z,5.30
2023-10-09T05:29:34.157Z,4.03
2023-10-09T05:32:15.166Z,3.17
2023-10-09T05:35:01.850Z,3.50
2023-10-09T05:37:44.590Z,4.60
2023-10-09T05:40:18.002Z,3.42
2023-10-09T05:42:46.664Z,2.67
2023-10-09T05:45:36.044Z,3.63
2023-10-09T05:48:15.605Z,3.47
2023-10-09T05:51:01.402Z,3.70
2023-10-09T05:53:46.824Z,5.50
2023-10-09T05:56:32.343Z,3.05
2023-10-09T05:59:17.914Z,3.60
2023-10-09T06:02:00.058Z,4.78
2023-10-09T06:04:45.922Z,3.78
2023-10-09T06:07:23.531Z,4.00
2023-10-09T06:09:58.852Z,5.60
2023-10-09T06:12:35.023Z,4.35
2023-10-09T06:15:32.464Z,5.55
2023-10-09T06:18:19.473Z,6.00
2023-10-09T06:21:05.301Z,8.50
2023-10-09T06:23:51.021Z,7.13
2023-10-09T06:26:27.625Z,8.45
2023-10-09T06:29:13.071Z,5.18
2023-10-09T06:31:58.691Z,4.60
2023-10-09T06:34:36.665Z,5.35
2023-10-09T06:37:27.289Z,3.95
2023-10-09T06:39:58.895Z,5.70
2023-10-09T06:42:39.619Z,4.97
2023-10-09T06:45:09.771Z,6.10
2023-10-09T06:47:43.305Z,5.47
2023-10-09T06:50:22.331Z,6.43
2023-10-09T06:52:59.887Z,5.78
2023-10-09T06:55:44.735Z,5.55
2023-10-09T07:01:02.381Z,6.60
2023-10-09T07:03:34.497Z,4.18
2023-10-09T07:06:25.668Z,5.78
2023-10-09T07:09:06.175Z,5.88
2023-10-09T07:11:58.962Z,3.75
2023-10-09T07:14:32.057Z,5.30
2023-10-09T07:17:30.293Z,4.45
2023-10-09T07:19:57.279Z,4.35
2023-10-09T07:22:24.308Z,7.15
2023-10-09T07:24:58.052Z,4.40
2023-10-09T07:27:44.514Z,5.32
2023-10-09T07:30:31.625Z,5.90
2023-10-09T07:33:12.332Z,6.07
2023-10-09T07:35:44.097Z,4.35
2023-10-09T07:38:22.925Z,4.88
2023-10-09T07:41:07.526Z,5.65
2023-10-09T07:43:41.227Z,6.00
2023-10-09T07:46:27.539Z,5.13
2023-10-09T07:48:56.221Z,5.20
2023-10-09T07:51:24.977Z,5.60
2023-10-09T07:53:58.536Z,6.85
2023-10-09T07:56:26.084Z,5.83
2023-10-09T07:58:53.299Z,4.40
2023-10-09T08:01:38.705Z,4.82
2023-10-09T08:04:12.271Z,6.15
2023-10-09T08:06:40.364Z,4.38
2023-10-09T08:09:20.475Z,7.32
2023-10-09T08:12:09.185Z,6.13
2023-10-09T08:14:36.233Z,5.50
2023-10-09T08:17:22.173Z,5.72
2023-10-09T08:20:12.847Z,7.13
2023-10-09T08:22:44.498Z,4.00
2023-10-09T08:25:28.400Z,4.10
2023-10-09T08:27:58.586Z,16.38
2023-10-09T08:30:27.137Z,4.50
2023-10-09T08:35:50.644Z,4.22
2023-10-09T08:38:25.089Z,4.03
2023-10-09T08:40:59.978Z,5.25
2023-10-09T08:43:32.383Z,5.18
2023-10-09T08:46:04.611Z,4.65
2023-10-09T08:48:32.236Z,5.95
2023-10-09T08:50:59.466Z,7.05
2023-10-09T08:53:29.301Z,6.45
2023-10-09T08:55:56.820Z,4.38
2023-10-09T08:58:43.824Z,6.55
2023-10-09T09:01:18.635Z,4.32
2023-10-09T09:03:46.404Z,5.50
2023-10-09T09:06:15.786Z,5.38
2023-10-09T09:08:46.315Z,5.55
2023-10-09T09:11:18.211Z,4.72
2023-10-09T09:13:50.120Z,2.85
2023-10-09T09:16:31.321Z,3.67
2023-10-09T09:19:12.610Z,4.35
2023-10-09T09:21:48.895Z,3.95
2023-10-09T09:24:20.112Z,3.65
2023-10-09T09:26:47.221Z,5.07
2023-10-09T09:29:19.168Z,3.38
2023-10-09T09:31:59.062Z,2.28
2023-10-09T09:34:30.736Z,5.00
2023-10-09T09:36:59.358Z,3.35
2023-10-09T09:39:38.595Z,2.88
2023-10-09T09:42:16.624Z,2.83
2023-10-09T09:44:45.919Z,4.07
2023-10-09T09:47:37.475Z,2.55
2023-10-09T09:50:25.866Z,3.25
2023-10-09T09:52:57.819Z,2.60
2023-10-09T09:55:34.960Z,3.22
2023-10-09T09:58:08.669Z,2.22
2023-10-09T10:00:44.307Z,2.55
2023-10-09T10:03:27.058Z,2.33
2023-10-09T10:05:58.246Z,2.95
2023-10-09T10:08:35.859Z,1.75
2023-10-09T10:11:15.304Z,2.10
2023-10-09T10:13:42.564Z,2.83
2023-10-09T10:16:15.370Z,2.67
2023-10-09T10:19:01.724Z,4.32
2023-10-09T10:21:32.944Z,3.13
2023-10-09T10:24:07.122Z,2.92
2023-10-09T10:26:37.471Z,3.72
2023-10-09T10:29:35.716Z,3.63
2023-10-09T10:32:09.446Z,2.78
2023-10-09T10:35:07.991Z,4.15
2023-10-09T10:37:45.098Z,1.92
2023-10-09T10:40:21.268Z,1.27
2023-10-09T10:43:09.237Z,4.10
2023-10-09T10:45:45.015Z,1.20
2023-10-09T10:48:24.583Z,1.88
2023-10-09T10:50:58.736Z,2.05
2023-10-09T10:53:30.676Z,2.38
2023-10-09T10:56:16.721Z,1.88
2023-10-09T10:59:13.075Z,2.72
2023-10-09T11:01:59.034Z,2.40
2023-10-09T11:04:31.475Z,1.90
2023-10-09T11:07:20.221Z,1.98
2023-10-09T11:10:08.141Z,1.60
2023-10-09T11:12:46.735Z,1.50
2023-10-09T11:15:23.705Z,2.38
2023-10-09T11:18:08.523Z,1.20
2023-10-09T11:23:11.716Z,3.22
2023-10-09T11:25:54.122Z,1.65
2023-10-09T11:28:31.421Z,1.80
2023-10-09T11:31:12.578Z,1.92
2023-10-09T11:33:46.420Z,1.90
2023-10-09T11:36:13.656Z,1.90
2023-10-09T11:38:47.077Z,2.75
2023-10-09T11:41:25.470Z,2.03
2023-10-09T11:43:54.522Z,2.45
2023-10-09T11:46:58.468Z,2.13
2023-10-09T11:49:45.634Z,1.33
2023-10-09T11:52:13.098Z,1.70
2023-10-09T11:54:40.170Z,2.33
2023-10-09T11:57:07.338Z,3.33
2023-10-09T11:59:39.244Z,1.48
2023-10-09T12:02:14.326Z,1.60
2023-10-09T12:04:46.445Z,1.52
2023-10-09T12:07:14.357Z,2.25
2023-10-09T12:09:41.651Z,1.60
2023-10-09T12:12:12.062Z,2.83
2023-10-09T12:14:39.125Z,1.50
2023-10-09T12:17:07.817Z,2.58
2023-10-09T12:19:42.277Z,4.07
2023-10-09T12:22:17.645Z,2.28
2023-10-09T12:24:45.028Z,1.77
2023-10-09T12:27:12.754Z,2.40
2023-10-09T12:29:47.212Z,2.00
2023-10-09T12:32:20.858Z,2.53
2023-10-09T12:34:52.170Z,4.07
2023-10-09T12:37:22.295Z,4.15
2023-10-09T12:39:49.692Z,1.40
2023-10-09T12:42:18.345Z,2.67
2023-10-09T12:44:45.908Z,1.67
2023-10-09T12:47:13.287Z,1.45
2023-10-09T12:49:43.462Z,1.52
2023-10-09T12:52:16.724Z,1.73
2023-10-09T12:54:49.914Z,1.90
2023-10-09T12:57:16.927Z,2.55
2023-10-09T12:59:46.710Z,3.90
2023-10-09T13:02:29.829Z,2.63
2023-10-09T13:04:58.573Z,4.85
2023-10-09T13:07:26.904Z,2.65
2023-10-09T13:10:14.665Z,2.03
2023-10-09T13:12:44.347Z,2.25
2023-10-09T13:15:12.711Z,2.72
2023-10-09T13:17:40.202Z,2.42
2023-10-09T13:20:17.626Z,2.83
2023-10-09T13:22:50.151Z,1.88
2023-10-09T13:25:33.801Z,2.13
2023-10-09T13:28:05.418Z,1.98
2023-10-09T13:30:41.521Z,2.38
2023-10-09T13:33:09.099Z,2.30
2023-10-09T13:35:46.775Z,1.80
2023-10-09T13:38:13.779Z,1.63
2023-10-09T13:40:40.915Z,2.13
2023-10-09T13:43:08.230Z,1.80
2023-10-09T13:45:40.103Z,2.45
2023-10-09T13:48:12.986Z,3.33
2023-10-09T13:50:44.023Z,2.63
2023-10-09T13:53:13.497Z,3.45
2023-10-09T13:55:45.148Z,1.58
2023-10-09T13:58:22.286Z,1.88
2023-10-09T14:00:51.269Z,4.43
2023-10-09T14:03:21.436Z,1.40
2023-10-09T14:05:58.538Z,2.00
2023-10-09T14:08:27.638Z,2.50
2023-10-09T14:10:56.102Z,2.33
2023-10-09T14:13:30.384Z,2.53
2023-10-09T14:16:01.207Z,3.28
2023-10-09T14:18:31.436Z,2.83
2023-10-09T14:21:06.219Z,3.97
2023-10-09T14:23:36.264Z,1.83
2023-10-09T14:26:03.750Z,3.25
2023-10-09T14:28:30.862Z,3.03
2023-10-09T14:31:02.077Z,1.90
2023-10-09T14:33:37.878Z,2.00
2023-10-09T14:36:07.404Z,5.75
2023-10-09T14:38:39.904Z,3.55
2023-10-09T14:41:13.213Z,2.75
2023-10-09T14:43:42.602Z,1.70
2023-10-09T14:46:15.270Z,1.70
2023-10-09T14:48:47.575Z,2.67
2023-10-09T14:51:14.876Z,2.45
2023-10-09T14:53:42.251Z,2.35
2023-10-09T14:56:17.127Z,3.03
2023-10-09T14:58:46.188Z,2.00
2023-10-09T15:01:16.571Z,2.47
2023-10-09T15:03:44.448Z,3.65
2023-10-09T15:06:12.637Z,2.20
2023-10-09T15:08:41.454Z,1.85
2023-10-09T15:11:08.658Z,8.00
2023-10-09T15:13:36.114Z,6.20
2023-10-09T15:16:05.289Z,4.03
2023-10-09T15:18:35.267Z,1.90
2023-10-09T15:21:02.439Z,4.28
2023-10-09T15:23:29.805Z,2.92
2023-10-09T15:25:57.057Z,3.10
2023-10-09T15:28:24.725Z,2.47
2023-10-09T15:30:52.086Z,2.60
2023-10-09T15:33:20.157Z,2.45
2023-10-09T15:35:48.108Z,2.30
2023-10-09T15:38:15.375Z,2.35
2023-10-09T15:40:45.156Z,1.48
2023-10-09T15:43:14.839Z,2.28
2023-10-09T15:45:45.913Z,1.98
2023-10-09T15:48:13.315Z,1.90
2023-10-09T15:50:49.909Z,1.45
2023-10-09T15:53:18.632Z,2.83
2023-10-09T15:55:46.780Z,3.10
2023-10-09T15:58:14.192Z,2.88
2023-10-09T16:00:45.135Z,1.80
2023-10-09T16:03:15.423Z,3.08
2023-10-09T16:05:43.177Z,3.47
2023-10-09T16:08:10.850Z,4.25
2023-10-09T16:10:38.391Z,2.90
2023-10-09T16:13:05.925Z,3.70
2023-10-09T16:15:34.103Z,2.90
2023-10-09T16:18:07.751Z,2.72
2023-10-09T16:20:35.050Z,2.47
2023-10-09T16:23:05.790Z,1.73
2023-10-09T16:25:35.480Z,4.28
2023-10-09T16:28:04.202Z,2.63
2023-10-09T16:30:31.462Z,2.45
2023-10-09T16:32:58.807Z,2.28
2023-10-09T16:35:26.013Z,2.20
2023-10-09T16:37:54.314Z,2.65
2023-10-09T16:40:24.714Z,3.42
2023-10-09T16:42:54.897Z,2.92
2023-10-09T16:45:22.386Z,5.72
2023-10-09T16:47:52.792Z,4.55
2023-10-09T16:50:21.031Z,3.58
2023-10-09T16:52:48.441Z,2.67
2023-10-09T16:55:16.503Z,2.97
2023-10-09T16:57:45.160Z,2.70
2023-10-09T17:00:31.091Z,2.35
2023-10-09T17:03:02.121Z,3.08
2023-10-09T17:05:29.852Z,4.10
2023-10-09T17:07:57.592Z,4.10
2023-10-09T17:10:29.426Z,4.28
2023-10-09T17:12:56.917Z,9.13
2023-10-09T17:15:30.619Z,5.13
2023-10-09T17:17:58.055Z,6.18
2023-10-09T17:20:28.517Z,4.28
2023-10-09T17:23:01.629Z,4.40
2023-10-09T17:25:32.414Z,3.47
2023-10-09T17:28:01.246Z,5.10
2023-10-09T17:30:28.557Z,4.28
2023-10-09T17:32:59.523Z,4.70
2023-10-09T17:35:29.285Z,4.72
2023-10-09T17:37:58.184Z,7.00
2023-10-09T17:40:29.471Z,5.60
2023-10-09T17:42:57.504Z,5.95
2023-10-09T17:45:26.117Z,6.70
2023-10-09T17:47:54.527Z,7.78
2023-10-09T17:50:23.272Z,7.63
2023-10-09T17:52:50.767Z,5.45
2023-10-09T17:55:23.894Z,5.13
2023-10-09T17:57:51.103Z,7.88
2023-10-09T18:00:24.593Z,6.78
2023-10-09T18:02:53.701Z,7.50
2023-10-09T18:05:21.373Z,5.95
2023-10-09T18:07:51.078Z,13.30
2023-10-09T18:10:18.794Z,9.68
2023-10-09T18:12:46.074Z,7.80
2023-10-09T18:15:15.163Z,8.43
2023-10-09T18:17:45.515Z,8.65
2023-10-09T18:20:13.697Z,16.77
2023-10-09T18:22:40.785Z,16.73
2023-10-09T18:25:08.131Z,19.20
2023-10-09T18:27:35.517Z,22.48
2023-10-09T18:30:02.539Z,17.55
2023-10-09T18:32:29.577Z,18.77
2023-10-09T18:34:57.228Z,16.08
2023-10-09T18:37:25.469Z,16.92
2023-10-09T18:39:52.985Z,19.58
2023-10-09T18:42:20.457Z,17.45
2023-10-09T18:44:47.514Z,19.15
2023-10-09T18:47:20.482Z,17.98
2023-10-09T18:49:51.634Z,17.48
2023-10-09T18:52:18.981Z,17.13
2023-10-09T18:54:46.776Z,15.65
2023-10-09T18:57:14.083Z,16.92
2023-10-09T18:59:44.107Z,17.92
2023-10-09T19:02:12.977Z,14.90
2023-10-09T19:04:40.433Z,21.92
2023-10-09T19:07:07.610Z,16.27
2023-10-09T19:09:34.621Z,17.38
2023-10-09T19:12:01.932Z,18.88
2023-10-09T19:14:30.300Z,20.45
2023-10-09T19:17:01.738Z,18.10
2023-10-09T19:19:28.908Z,13.38
2023-10-09T19:21:56.114Z,17.35
2023-10-09T19:24:23.255Z,17.67
2023-10-09T19:26:50.389Z,14.38
2023-10-09T19:29:17.475Z,17.98
2023-10-09T19:31:45.507Z,16.65
2023-10-09T19:34:15.097Z,19.10
2023-10-09T19:36:47.776Z,16.60
2023-10-09T19:39:18.837Z,16.35
2023-10-09T19:41:46.156Z,15.75
2023-10-09T19:44:13.336Z,14.27
2023-10-09T19:46:41.008Z,14.20
2023-10-09T19:49:10.255Z,14.10
2023-10-09T19:51:37.380Z,13.80
2023-10-09T19:54:05.104Z,11.43
2023-10-09T19:56:33.270Z,14.90
2023-10-09T19:59:00.353Z,14.75
2023-10-09T20:01:28.867Z,12.13
2023-10-09T20:03:56.385Z,14.85
2023-10-09T20:06:24.238Z,14.55
2023-10-09T20:08:51.182Z,10.88
2023-10-09T20:11:18.424Z,14.10
2023-10-09T20:13:45.845Z,13.80
2023-10-09T20:16:13.204Z,14.00
2023-10-09T20:18:44.096Z,8.68
2023-10-09T20:21:14.212Z,12.30
2023-10-09T20:23:42.347Z,13.13
2023-10-09T20:26:15.970Z,12.95
2023-10-09T20:28:44.347Z,12.00
2023-10-09T20:31:12.515Z,14.15
2023-10-09T20:33:40.841Z,15.38
2023-10-09T20:36:17.217Z,14.60
2023-10-09T20:38:47.975Z,13.20
2023-10-09T20:41:16.517Z,19.23
2023-10-09T20:43:43.741Z,14.45
2023-10-09T20:46:14.083Z,13.98
2023-10-09T20:48:46.562Z,13.05
2023-10-09T20:51:18.140Z,12.80
2023-10-09T20:53:45.680Z,13.65
2023-10-09T20:56:12.769Z,17.05
2023-10-09T20:58:44.448Z,10.77
2023-10-09T21:01:18.309Z,10.75
2023-10-09T21:03:46.903Z,13.77
2023-10-09T21:06:15.583Z,14.95
2023-10-09T21:08:43.879Z,11.73
2023-10-09T21:11:11.265Z,8.93
2023-10-09T21:13:39.937Z,12.30
2023-10-09T21:16:13.787Z,13.18
2023-10-09T21:18:44.676Z,9.90
2023-10-09T21:21:16.028Z,9.85
2023-10-09T21:23:44.271Z,10.32
2023-10-09T21:26:22.400Z,10.63
2023-10-09T21:28:51.958Z,11.98
2023-10-09T21:31:22.013Z,10.50
2023-10-09T21:33:50.820Z,11.68
2023-10-09T21:36:18.582Z,10.82
2023-10-09T21:38:45.793Z,11.57
2023-10-09T21:41:13.946Z,8.82
2023-10-09T21:43:41.949Z,9.65
2023-10-09T21:46:10.895Z,11.65
2023-10-09T21:48:39.168Z,8.48
2023-10-09T21:51:10.048Z,9.10
2023-10-09T21:53:38.048Z,10.95
2023-10-09T21:56:10.580Z,11.63
2023-10-09T21:58:38.223Z,13.93
2023-10-09T22:01:09.271Z,9.98
2023-10-09T22:03:41.655Z,15.63
2023-10-09T22:06:11.633Z,14.25
2023-10-09T22:08:39.054Z,16.95
2023-10-09T22:11:08.702Z,14.20
2023-10-09T22:13:36.354Z,15.85
2023-10-09T22:16:03.496Z,18.23
2023-10-09T22:18:31.486Z,12.35
2023-10-09T22:20:58.742Z,15.95
2023-10-09T22:23:36.829Z,14.88
2023-10-09T22:26:05.425Z,18.10
2023-10-09T22:28:35.760Z,15.10
2023-10-09T22:31:05.453Z,15.82
2023-10-09T22:33:47.036Z,18.27
2023-10-09T22:36:34.456Z,14.25
2023-10-09T22:39:06.788Z,15.90
2023-10-09T22:41:36.004Z,17.63
2023-10-09T22:44:12.011Z,16.23
2023-10-09T22:46:41.938Z,15.45
2023-10-09T22:49:15.960Z,15.98
2023-10-09T22:54:35.878Z,16.58
2023-10-09T22:57:04.457Z,15.30
2023-10-09T22:59:33.242Z,18.20
2023-10-09T23:02:01.020Z,18.00
2023-10-09T23:04:40.406Z,16.98
2023-10-09T23:07:16.251Z,14.55
2023-10-09T23:09:55.772Z,14.13
2023-10-09T23:12:27.008Z,13.38
2023-10-09T23:14:56.829Z,14.07
2023-10-09T23:17:44.142Z,19.15
2023-10-09T23:20:21.118Z,12.98
2023-10-09T23:22:51.254Z,15.20
2023-10-09T23:25:31.377Z,15.50
2023-10-09T23:28:15.836Z,14.23
2023-10-09T23:30:45.849Z,12.13
2023-10-09T23:33:22.251Z,19.80
2023-10-09T23:35:56.799Z,15.27
2023-10-09T23:41:13.329Z,12.80
2023-10-09T23:43:46.208Z,15.52
2023-10-09T23:46:18.208Z,14.35
2023-10-09T23:48:46.086Z,11.65
2023-10-09T23:51:20.202Z,15.60
2023-10-09T23:53:53.446Z,14.68
2023-10-09T23:56:40.920Z,16.95
2023-10-09T23:59:13.105Z,12.38
